Time;durP1;ratioP1;P1;durP2;ratioP2;P2;SDS_P1;SDS_P2;PMS_P1;PMS_P2;Temp;Humidity;BMP_temperature;BMP_pressure;BME280_temperature;BME280_humidity;BME280_pressure;Samples;Min_cycle;Max_cycle;Signal;HPM_P1;HPM_P2
2024/02/24 00:01:53;;;;;;;3.40;1.70;;;11.00;95.20;;;;;;5093978;28;20492;-76
2024/02/24 00:04:18;;;;;;;9.20;1.90;;;11.10;95.10;;;;;;5095383;28;20079;-76
2024/02/24 00:06:44;;;;;;;3.72;1.95;;;11.10;95.10;;;;;;5099469;28;20035;-76
2024/02/24 00:09:09;;;;;;;4.53;1.55;;;11.10;95.00;;;;;;5101108;28;20048;-76
2024/02/24 00:11:35;;;;;;;6.25;1.85;;;11.10;94.90;;;;;;5106538;27;20035;-76
2024/02/24 00:14:01;;;;;;;6.22;2.20;;;11.10;95.00;;;;;;5099922;28;20546;-76
2024/02/24 00:16:26;;;;;;;4.70;1.67;;;11.10;95.00;;;;;;5105967;28;20077;-76
2024/02/24 00:18:55;;;;;;;5.40;1.98;;;11.10;94.90;;;;;;5097939;28;20113;-76
2024/02/24 00:21:21;;;;;;;3.63;2.03;;;11.10;94.90;;;;;;5100886;28;20056;-76
2024/02/24 00:23:47;;;;;;;6.78;1.85;;;11.00;94.80;;;;;;5102431;28;20044;-76
2024/02/24 00:26:13;;;;;;;4.07;2.08;;;11.00;94.90;;;;;;5094290;28;20093;-76
2024/02/24 00:28:38;;;;;;;4.35;2.10;;;11.00;94.90;;;;;;5092541;28;20060;-76
2024/02/24 00:31:04;;;;;;;3.83;1.80;;;11.00;94.90;;;;;;5104253;28;20057;-77
2024/02/24 00:33:30;;;;;;;5.55;2.20;;;11.00;94.90;;;;;;5096312;28;20100;-75
2024/02/24 00:35:55;;;;;;;4.85;1.90;;;11.00;94.80;;;;;;5094428;28;20463;-76
2024/02/24 00:38:21;;;;;;;7.30;2.10;;;11.00;94.80;;;;;;5104111;28;20048;-76
2024/02/24 00:40:47;;;;;;;6.68;1.73;;;11.00;94.80;;;;;;5090335;28;20031;-76
2024/02/24 00:43:12;;;;;;;4.30;1.60;;;11.00;94.80;;;;;;5091398;28;20073;-76
2024/02/24 00:45:38;;;;;;;4.20;2.30;;;11.00;94.80;;;;;;5100196;28;20020;-76
2024/02/24 00:48:04;;;;;;;6.60;2.00;;;11.00;94.80;;;;;;5098144;27;20505;-76
2024/02/24 00:50:30;;;;;;;3.67;2.00;;;11.00;94.80;;;;;;5106222;28;20108;-76
2024/02/24 00:52:56;;;;;;;4.35;2.00;;;10.90;94.80;;;;;;5093456;28;20163;-77
2024/02/24 00:55:25;;;;;;;5.70;2.53;;;10.90;94.80;;;;;;5090228;28;20054;-75
2024/02/24 00:57:51;;;;;;;5.05;1.73;;;10.90;94.80;;;;;;5098894;28;20142;-74
2024/02/24 01:00:17;;;;;;;5.25;1.98;;;10.80;94.80;;;;;;5100968;28;20114;-75
2024/02/24 01:02:43;;;;;;;4.05;0.68;;;10.80;94.80;;;;;;5093951;28;20050;-75
2024/02/24 01:05:09;;;;;;;15.38;2.00;;;10.80;94.90;;;;;;5096300;28;20398;-75
2024/02/24 01:07:35;;;;;;;2.90;1.67;;;10.70;94.90;;;;;;5093546;28;20111;-74
2024/02/24 01:10:01;;;;;;;7.97;2.58;;;10.70;95.00;;;;;;5092500;28;20521;-74
2024/02/24 01:12:27;;;;;;;5.20;2.45;;;10.70;95.00;;;;;;5113858;27;20032;-74
2024/02/24 01:14:53;;;;;;;5.15;2.22;;;10.70;95.00;;;;;;5091295;28;20515;-75
2024/02/24 01:17:19;;;;;;;5.60;1.88;;;10.70;95.00;;;;;;5106071;28;20035;-75
2024/02/24 01:19:45;;;;;;;5.82;2.33;;;10.60;95.00;;;;;;5109637;28;20119;-75
2024/02/24 01:22:14;;;;;;;5.80;1.92;;;10.60;95.00;;;;;;5093273;28;20126;-74
2024/02/24 01:24:39;;;;;;;5.50;1.98;;;10.60;95.00;;;;;;5109626;28;20122;-74
2024/02/24 01:27:05;;;;;;;4.45;2.08;;;10.60;95.00;;;;;;5089616;28;20115;-75
2024/02/24 01:29:31;;;;;;;3.85;2.40;;;10.60;95.00;;;;;;5099287;28;20360;-75
2024/02/24 01:32:01;;;;;;;4.25;1.90;;;10.50;94.90;;;;;;5090560;28;20032;-75
2024/02/24 01:34:27;;;;;;;1.98;1.23;;;10.50;95.00;;;;;;5091134;28;20042;-75
2024/02/24 01:36:53;;;;;;;4.10;2.00;;;10.50;95.00;;;;;;5094299;28;20024;-75
2024/02/24 01:39:19;;;;;;;4.03;1.65;;;10.40;95.10;;;;;;5099268;28;20043;-75
2024/02/24 01:41:45;;;;;;;5.80;1.92;;;10.40;95.30;;;;;;5091175;28;20032;-74
2024/02/24 01:44:10;;;;;;;3.50;2.13;;;10.30;95.30;;;;;;5079250;28;20039;-75
2024/02/24 01:46:36;;;;;;;1.85;1.35;;;10.30;95.40;;;;;;5097210;28;20055;-75
2024/02/24 01:49:02;;;;;;;4.85;2.15;;;10.20;95.40;;;;;;5109654;28;20031;-75
2024/02/24 01:51:27;;;;;;;2.95;1.90;;;10.20;95.40;;;;;;5092410;28;20090;-75
2024/02/24 01:53:54;;;;;;;5.13;2.17;;;10.20;95.50;;;;;;5105014;28;20027;-77
2024/02/24 01:56:21;;;;;;;2.22;1.73;;;10.20;95.50;;;;;;5099368;28;20042;-74
2024/02/24 01:58:48;;;;;;;6.65;1.85;;;10.20;95.50;;;;;;5096509;28;20501;-75
2024/02/24 02:01:14;;;;;;;5.85;2.47;;;10.20;95.40;;;;;;5098260;28;20032;-75
2024/02/24 02:03:39;;;;;;;4.35;2.10;;;10.20;95.40;;;;;;5098969;28;20131;-74
2024/02/24 02:06:05;;;;;;;3.58;2.20;;;10.20;95.40;;;;;;5096666;28;20114;-75
2024/02/24 02:08:31;;;;;;;7.95;2.80;;;10.30;95.30;;;;;;5092042;28;20028;-75
2024/02/24 02:10:57;;;;;;;4.07;2.30;;;10.30;95.30;;;;;;5099285;27;20023;-75
2024/02/24 02:13:23;;;;;;;6.07;2.42;;;10.30;95.20;;;;;;5098215;27;20407;-75
2024/02/24 02:15:51;;;;;;;3.92;1.92;;;10.30;95.20;;;;;;5089152;28;20111;-75
2024/02/24 02:18:18;;;;;;;3.33;2.13;;;10.30;95.10;;;;;;5088464;28;20023;-74
2024/02/24 02:20:46;;;;;;;4.15;1.65;;;10.30;95.10;;;;;;5109872;28;20161;-74
2024/02/24 02:23:13;;;;;;;5.20;1.92;;;10.30;95.10;;;;;;5106309;28;20554;-75
2024/02/24 02:25:38;;;;;;;3.10;1.88;;;10.30;95.20;;;;;;5103536;28;20035;-74
2024/02/24 02:28:04;;;;;;;5.20;1.88;;;10.30;95.20;;;;;;5106420;28;20039;-74
2024/02/24 02:30:30;;;;;;;7.50;2.40;;;10.40;95.20;;;;;;5100093;28;20027;-75
2024/02/24 02:32:55;;;;;;;2.65;1.77;;;10.30;95.20;;;;;;5092816;28;20039;-75
2024/02/24 02:35:21;;;;;;;4.90;2.60;;;10.30;95.20;;;;;;5100395;28;20024;-75
2024/02/24 02:37:47;;;;;;;4.05;2.17;;;10.30;95.20;;;;;;5093417;28;20028;-75
2024/02/24 02:40:12;;;;;;;4.03;1.80;;;10.30;95.10;;;;;;5094974;28;20519;-75
2024/02/24 02:42:38;;;;;;;3.47;2.10;;;10.40;95.00;;;;;;5095155;28;20513;-75
2024/02/24 02:45:04;;;;;;;5.22;2.22;;;10.40;95.00;;;;;;5095761;28;20039;-75
2024/02/24 02:47:30;;;;;;;5.05;2.17;;;10.40;94.90;;;;;;5094459;28;20106;-75
2024/02/24 02:49:55;;;;;;;3.72;2.40;;;10.40;94.80;;;;;;5088476;28;20099;-75
2024/02/24 02:52:21;;;;;;;2.83;1.98;;;10.40;94.90;;;;;;5092452;28;20510;-75
2024/02/24 02:54:47;;;;;;;3.85;2.00;;;10.40;94.80;;;;;;5101598;28;20032;-75
2024/02/24 02:57:12;;;;;;;4.78;2.25;;;10.40;94.70;;;;;;5090769;28;20032;-75
2024/02/24 02:59:38;;;;;;;3.28;2.08;;;10.50;94.70;;;;;;5097987;28;20028;-75
2024/02/24 03:02:03;;;;;;;5.22;2.20;;;10.50;94.60;;;;;;5089431;28;20024;-75
2024/02/24 03:04:29;;;;;;;5.68;2.45;;;10.50;94.50;;;;;;5091305;28;20383;-75
2024/02/24 03:06:55;;;;;;;5.18;2.10;;;10.50;94.50;;;;;;5091436;28;20015;-75
2024/02/24 03:09:20;;;;;;;4.68;2.42;;;10.40;94.50;;;;;;5087064;28;20059;-75
2024/02/24 03:11:46;;;;;;;5.03;2.47;;;10.40;94.50;;;;;;5113439;27;20027;-75
2024/02/24 03:14:11;;;;;;;5.72;1.73;;;10.40;94.50;;;;;;5089708;28;20020;-75
2024/02/24 03:16:40;;;;;;;4.25;2.33;;;10.50;94.50;;;;;;5099921;28;20543;-75
2024/02/24 03:19:08;;;;;;;5.22;2.17;;;10.40;94.50;;;;;;5094281;28;20020;-75
2024/02/24 03:21:34;;;;;;;5.18;2.10;;;10.40;94.50;;;;;;5094893;28;20035;-75
2024/02/24 03:24:00;;;;;;;2.90;1.80;;;10.30;94.50;;;;;;5102359;28;20039;-75
2024/02/24 03:26:26;;;;;;;4.78;2.28;;;10.30;94.50;;;;;;5113495;28;20030;-75
2024/02/24 03:28:51;;;;;;;3.88;2.10;;;10.30;94.40;;;;;;5087095;28;20137;-75
2024/02/24 03:31:17;;;;;;;5.35;2.38;;;10.40;94.40;;;;;;5097314;28;20020;-75
2024/02/24 03:33:43;;;;;;;7.22;2.35;;;10.30;94.50;;;;;;5104116;28;20036;-75
2024/02/24 03:36:19;;;;;;;6.28;2.25;;;10.30;94.40;;;;;;5106940;28;20036;-75
2024/02/24 03:38:45;;;;;;;3.42;2.38;;;10.40;94.40;;;;;;5096454;28;20541;-75
2024/02/24 03:41:11;;;;;;;5.50;2.08;;;10.40;94.40;;;;;;5097055;28;20032;-75
2024/02/24 03:43:38;;;;;;;3.05;2.15;;;10.40;94.40;;;;;;5089170;28;20059;-75
2024/02/24 03:46:05;;;;;;;4.72;2.03;;;10.40;94.30;;;;;;5098636;28;20039;-75
2024/02/24 03:48:31;;;;;;;4.10;1.90;;;10.30;94.20;;;;;;5105357;28;20518;-75
2024/02/24 03:50:58;;;;;;;3.30;2.13;;;10.40;94.20;;;;;;5107258;28;20051;-75
2024/02/24 03:53:24;;;;;;;2.70;1.88;;;10.40;94.10;;;;;;5092906;28;20051;-75
2024/02/24 03:55:50;;;;;;;2.88;1.60;;;10.40;94.10;;;;;;5103114;28;20028;-76
2024/02/24 03:58:17;;;;;;;6.28;1.80;;;10.30;94.10;;;;;;5100664;28;20031;-75
2024/02/24 04:00:42;;;;;;;2.28;1.67;;;10.30;94.20;;;;;;5100004;28;20070;-76
2024/02/24 04:03:08;;;;;;;1.63;1.40;;;10.20;94.30;;;;;;5095885;28;20056;-75
2024/02/24 04:05:33;;;;;;;3.83;1.58;;;10.10;94.30;;;;;;5098052;28;20475;-76
2024/02/24 04:07:59;;;;;;;3.20;1.58;;;10.00;94.40;;;;;;5088290;28;20032;-76
2024/02/24 04:10:25;;;;;;;2.17;1.52;;;10.00;94.50;;;;;;5088342;28;20020;-76
2024/02/24 04:12:50;;;;;;;2.05;1.50;;;10.00;94.60;;;;;;5099322;28;20024;-75
2024/02/24 04:15:20;;;;;;;4.10;1.63;;;9.90;94.60;;;;;;5088360;28;20439;-75
2024/02/24 04:17:49;;;;;;;3.15;2.03;;;9.90;94.60;;;;;;5100150;28;20122;-76
2024/02/24 04:20:15;;;;;;;6.57;2.30;;;9.90;94.60;;;;;;5098972;28;20097;-75
2024/02/24 04:22:42;;;;;;;3.75;2.10;;;9.90;94.60;;;;;;5097311;28;20040;-75
2024/02/24 04:25:08;;;;;;;4.55;1.95;;;10.00;94.60;;;;;;5108008;28;20132;-75
2024/02/24 04:27:34;;;;;;;5.80;2.03;;;9.90;94.60;;;;;;5094706;28;20498;-76
2024/02/24 04:30:00;;;;;;;3.95;2.03;;;9.90;94.50;;;;;;5100367;28;20032;-75
2024/02/24 04:32:27;;;;;;;3.55;2.00;;;10.00;94.50;;;;;;5108522;27;20028;-76
2024/02/24 04:34:52;;;;;;;2.72;1.77;;;10.00;94.50;;;;;;5104171;28;20256;-76
2024/02/24 04:37:18;;;;;;;3.47;1.80;;;9.90;94.40;;;;;;5092815;28;20035;-75
2024/02/24 04:39:44;;;;;;;4.20;1.75;;;10.00;94.40;;;;;;5099421;28;20031;-76
2024/02/24 04:42:09;;;;;;;3.55;1.85;;;10.00;94.40;;;;;;5102743;28;20035;-75
2024/02/24 04:44:35;;;;;;;3.78;1.98;;;10.00;94.40;;;;;;5091086;28;20036;-76
2024/02/24 04:47:01;;;;;;;3.50;1.85;;;10.00;94.40;;;;;;5091046;28;20024;-76
2024/02/24 04:49:26;;;;;;;4.82;2.03;;;10.00;94.40;;;;;;5108223;28;20360;-76
2024/02/24 04:51:52;;;;;;;3.42;2.05;;;10.00;94.30;;;;;;5098569;28;20803;-76
2024/02/24 04:54:17;;;;;;;3.92;1.98;;;10.00;94.30;;;;;;5102661;28;20026;-75
2024/02/24 04:56:43;;;;;;;3.88;1.92;;;10.00;94.20;;;;;;5101565;28;20042;-75
2024/02/24 04:59:09;;;;;;;2.67;1.90;;;10.00;94.20;;;;;;5105028;28;20024;-76
2024/02/24 05:01:37;;;;;;;4.65;1.90;;;10.00;94.20;;;;;;5097664;28;20542;-76
2024/02/24 05:04:03;;;;;;;3.33;2.05;;;10.00;94.30;;;;;;5107360;28;20150;-75
2024/02/24 05:06:29;;;;;;;4.53;1.75;;;10.00;94.20;;;;;;5097878;28;20024;-75
2024/02/24 05:08:55;;;;;;;6.72;1.88;;;10.00;94.20;;;;;;5101302;28;20386;-75
2024/02/24 05:11:20;;;;;;;2.15;1.60;;;9.90;94.20;;;;;;5090738;28;20028;-75
2024/02/24 05:13:49;;;;;;;6.10;1.73;;;10.00;94.20;;;;;;5102385;28;20040;-75
2024/02/24 05:16:14;;;;;;;4.65;1.92;;;10.00;94.20;;;;;;5091210;28;20050;-76
2024/02/24 05:18:40;;;;;;;2.17;1.67;;;9.90;94.20;;;;;;5097880;28;20365;-75
2024/02/24 05:21:06;;;;;;;4.60;1.80;;;9.90;94.20;;;;;;5099330;28;20447;-75
2024/02/24 05:23:32;;;;;;;4.97;1.95;;;9.90;94.10;;;;;;5097956;28;20043;-75
2024/02/24 05:25:58;;;;;;;3.50;1.90;;;9.90;94.20;;;;;;5095668;28;20016;-75
2024/02/24 05:28:23;;;;;;;6.97;2.17;;;9.80;94.20;;;;;;5098046;28;20383;-75
2024/02/24 05:30:49;;;;;;;3.20;2.47;;;9.80;94.20;;;;;;5095803;28;20077;-75
2024/02/24 05:33:15;;;;;;;6.60;2.20;;;9.80;94.20;;;;;;5110958;27;20027;-75
2024/02/24 05:35:41;;;;;;;4.15;2.03;;;9.80;94.20;;;;;;5096318;28;20036;-75
2024/02/24 05:38:06;;;;;;;4.47;1.92;;;9.80;94.10;;;;;;5097616;28;20023;-75
2024/02/24 05:40:32;;;;;;;3.55;1.88;;;9.80;94.00;;;;;;5092592;28;20023;-75
2024/02/24 05:42:58;;;;;;;4.38;2.28;;;9.90;94.00;;;;;;5100309;28;20052;-75
2024/02/24 05:45:24;;;;;;;3.63;2.00;;;9.80;94.00;;;;;;5091088;28;20411;-75
2024/02/24 05:47:49;;;;;;;2.30;1.85;;;9.80;94.10;;;;;;5090546;28;20820;-76
2024/02/24 05:50:15;;;;;;;5.63;1.88;;;9.70;94.10;;;;;;5100231;28;20058;-76
2024/02/24 05:52:41;;;;;;;3.22;1.85;;;9.70;94.20;;;;;;5106956;28;20052;-76
2024/02/24 05:55:09;;;;;;;4.43;2.28;;;9.70;94.30;;;;;;5105095;28;20035;-76
2024/02/24 05:57:35;;;;;;;5.88;2.10;;;9.70;94.30;;;;;;5089909;28;20032;-76
2024/02/24 06:00:10;;;;;;;4.05;1.75;;;9.70;94.30;;;;;;5092770;28;20027;-76
2024/02/24 06:02:37;;;;;;;5.97;2.50;;;9.60;94.30;;;;;;5110111;28;20066;-76
2024/02/24 06:05:04;;;;;;;5.30;2.00;;;9.60;94.20;;;;;;5093820;28;20119;-76
2024/02/24 06:07:30;;;;;;;2.70;2.03;;;9.60;94.20;;;;;;5097580;28;20052;-76
2024/02/24 06:09:55;;;;;;;2.55;1.80;;;9.70;94.20;;;;;;5101978;28;20455;-76
2024/02/24 06:12:21;;;;;;;6.70;1.90;;;9.70;94.20;;;;;;5089520;28;20115;-76
2024/02/24 06:14:46;;;;;;;4.00;2.08;;;9.70;94.20;;;;;;5093174;28;20028;-76
2024/02/24 06:17:12;;;;;;;3.63;1.85;;;9.60;94.10;;;;;;5098072;28;20031;-76
2024/02/24 06:19:38;;;;;;;2.95;1.65;;;9.70;94.10;;;;;;5088770;28;20020;-76
2024/02/24 06:22:03;;;;;;;2.90;1.75;;;9.60;94.10;;;;;;5089741;28;20504;-76
2024/02/24 06:24:29;;;;;;;3.53;1.98;;;9.60;94.20;;;;;;5088469;28;20069;-76
2024/02/24 06:26:54;;;;;;;6.97;2.17;;;9.50;94.30;;;;;;5089632;28;20050;-76
2024/02/24 06:29:20;;;;;;;5.10;2.03;;;9.50;94.20;;;;;;5094297;28;20027;-76
2024/02/24 06:31:46;;;;;;;2.80;1.60;;;9.50;94.20;;;;;;5109606;27;20030;-76
2024/02/24 06:34:11;;;;;;;12.13;2.05;;;9.50;94.20;;;;;;5087405;28;20062;-76
2024/02/24 06:36:37;;;;;;;3.85;2.08;;;9.50;94.20;;;;;;5098925;28;20038;-76
2024/02/24 06:39:03;;;;;;;1.95;1.30;;;9.60;94.10;;;;;;5101350;28;20040;-76
2024/02/24 06:41:28;;;;;;;4.28;2.00;;;9.60;94.10;;;;;;5092992;28;20476;-75
2024/02/24 06:43:54;;;;;;;4.63;2.33;;;9.60;94.10;;;;;;5087481;28;20069;-76
2024/02/24 06:46:20;;;;;;;4.82;1.58;;;9.50;94.10;;;;;;5097772;28;20165;-76
2024/02/24 06:48:48;;;;;;;4.97;2.00;;;9.50;94.10;;;;;;5098289;28;20032;-76
2024/02/24 06:51:14;;;;;;;3.22;1.80;;;9.50;94.10;;;;;;5092587;28;20132;-75
2024/02/24 06:53:39;;;;;;;4.35;1.90;;;9.50;94.10;;;;;;5101920;28;20069;-77
2024/02/24 06:56:09;;;;;;;4.45;1.85;;;9.50;94.20;;;;;;5091211;28;20106;-76
2024/02/24 06:58:35;;;;;;;2.63;1.90;;;9.50;94.20;;;;;;5100471;28;20039;-76
2024/02/24 07:01:02;;;;;;;1.98;1.45;;;9.50;94.20;;;;;;5087196;28;20700;-76
2024/02/24 07:03:32;;;;;;;3.05;1.60;;;9.40;94.20;;;;;;5088799;28;20044;-76
2024/02/24 07:06:01;;;;;;;2.33;1.77;;;9.50;94.20;;;;;;5089017;28;20487;-76
2024/02/24 07:08:29;;;;;;;2.45;1.73;;;9.50;94.20;;;;;;5088031;28;20035;-76
2024/02/24 07:10:55;;;;;;;1.95;1.52;;;9.50;94.10;;;;;;5088371;28;20067;-76
2024/02/24 07:13:21;;;;;;;3.50;2.03;;;9.50;94.20;;;;;;5087437;28;20184;-75
2024/02/24 07:15:47;;;;;;;2.75;1.80;;;9.50;94.20;;;;;;5101455;28;20034;-76
2024/02/24 07:18:13;;;;;;;3.53;1.88;;;9.50;94.20;;;;;;5101145;28;20043;-77
2024/02/24 07:20:38;;;;;;;2.30;1.15;;;9.50;94.20;;;;;;5091431;28;20019;-76
2024/02/24 07:23:04;;;;;;;3.03;1.40;;;9.50;94.10;;;;;;5098161;28;20044;-75
2024/02/24 07:25:30;;;;;;;2.22;1.70;;;9.50;94.10;;;;;;5092142;28;20067;-76
2024/02/24 07:27:55;;;;;;;4.35;2.03;;;9.50;94.20;;;;;;5087503;28;20036;-78
2024/02/24 07:30:24;;;;;;;2.58;1.98;;;9.60;94.20;;;;;;5087960;28;20031;-76
2024/02/24 07:32:49;;;;;;;7.30;2.33;;;9.60;94.10;;;;;;5112557;28;20050;-76
2024/02/24 07:35:15;;;;;;;2.95;1.70;;;9.50;94.10;;;;;;5088356;28;20103;-76
2024/02/24 07:37:41;;;;;;;2.03;1.58;;;9.50;94.10;;;;;;5094532;28;20042;-76
2024/02/24 07:40:07;;;;;;;5.93;2.03;;;9.50;94.10;;;;;;5092673;28;20437;-76
2024/02/24 07:42:32;;;;;;;10.55;2.45;;;9.50;94.10;;;;;;5092265;28;20510;-77
2024/02/24 07:44:58;;;;;;;1.77;1.35;;;9.50;94.10;;;;;;5094727;28;20024;-77
2024/02/24 07:47:24;;;;;;;3.25;1.75;;;9.40;94.20;;;;;;5092390;28;20028;-77
2024/02/24 07:49:49;;;;;;;4.20;2.20;;;9.40;94.20;;;;;;5095140;28;20525;-74
2024/02/24 07:52:15;;;;;;;2.78;1.52;;;9.40;94.20;;;;;;5097004;28;20439;-77
2024/02/24 07:54:41;;;;;;;2.92;1.80;;;9.40;94.30;;;;;;5110085;27;20033;-77
2024/02/24 07:57:06;;;;;;;9.68;1.65;;;9.30;94.30;;;;;;5099069;28;20483;-78
2024/02/24 07:59:32;;;;;;;3.92;1.98;;;9.40;94.40;;;;;;5092231;28;20024;-75
2024/02/24 08:01:57;;;;;;;4.80;1.77;;;9.30;94.40;;;;;;5097834;28;20024;-76
2024/02/24 08:04:23;;;;;;;3.10;1.90;;;9.30;94.50;;;;;;5095960;28;20100;-76
2024/02/24 08:06:48;;;;;;;5.20;2.20;;;9.40;94.50;;;;;;5092711;28;20016;-76
2024/02/24 08:09:14;;;;;;;7.55;2.17;;;9.40;94.50;;;;;;5092300;28;20498;-76
2024/02/24 08:11:40;;;;;;;5.88;2.83;;;9.40;94.40;;;;;;5098844;28;20118;-76
2024/02/24 08:14:07;;;;;;;0.88;0.80;;;9.40;94.50;;;;;;5097634;28;20056;-76
2024/02/24 08:16:33;;;;;;;3.38;2.33;;;9.40;94.50;;;;;;5100852;28;20684;-76
2024/02/24 08:18:59;;;;;;;2.92;2.00;;;9.30;94.50;;;;;;5093786;28;20039;-76
2024/02/24 08:21:26;;;;;;;1.45;1.23;;;9.20;94.60;;;;;;5107078;28;20039;-76
2024/02/24 08:23:52;;;;;;;3.13;1.92;;;9.20;94.80;;;;;;5101486;28;20047;-76
2024/02/24 08:26:17;;;;;;;1.30;0.98;;;9.10;94.90;;;;;;5102982;28;20059;-76
2024/02/24 08:28:43;;;;;;;3.90;2.20;;;9.10;95.00;;;;;;5094089;28;20104;-76
2024/02/24 08:31:08;;;;;;;5.72;1.45;;;9.10;95.10;;;;;;5092802;28;20097;-77
2024/02/24 08:33:34;;;;;;;3.92;1.83;;;9.10;95.20;;;;;;5110458;27;20032;-76
2024/02/24 08:36:00;;;;;;;3.55;2.30;;;9.10;95.20;;;;;;5104322;28;20028;-76
2024/02/24 08:38:27;;;;;;;2.90;1.80;;;9.10;95.30;;;;;;5098404;28;20043;-75
2024/02/24 08:40:54;;;;;;;4.95;1.95;;;9.10;95.30;;;;;;5098906;28;20036;-76
2024/02/24 08:43:19;;;;;;;3.85;2.60;;;9.20;95.20;;;;;;5104977;28;20449;-76
2024/02/24 08:45:45;;;;;;;3.10;1.83;;;9.30;95.20;;;;;;5088879;28;20032;-76
2024/02/24 08:48:12;;;;;;;2.08;0.88;;;9.30;95.20;;;;;;5108973;28;20032;-77
2024/02/24 08:50:40;;;;;;;6.80;2.90;;;9.30;95.20;;;;;;5100096;28;20387;-76
2024/02/24 08:53:05;;;;;;;4.65;2.20;;;9.30;95.20;;;;;;5102595;28;20055;-75
2024/02/24 08:55:31;;;;;;;8.02;2.95;;;9.40;95.20;;;;;;5104438;28;20080;-76
2024/02/24 08:57:57;;;;;;;5.55;2.40;;;9.40;95.20;;;;;;5097278;28;20063;-75
2024/02/24 09:00:22;;;;;;;6.43;2.67;;;9.40;95.20;;;;;;5097946;28;20028;-75
2024/02/24 09:02:48;;;;;;;4.20;1.75;;;9.50;95.20;;;;;;5094556;28;20031;-76
2024/02/24 09:05:14;;;;;;;4.38;2.25;;;9.40;95.20;;;;;;5092541;28;20383;-76
2024/02/24 09:07:40;;;;;;;5.20;2.78;;;9.50;95.20;;;;;;5097364;28;20419;-76
2024/02/24 09:10:06;;;;;;;5.70;2.38;;;9.50;95.30;;;;;;5088809;28;20043;-75
2024/02/24 09:12:32;;;;;;;5.85;2.58;;;9.50;95.30;;;;;;5091928;28;20028;-75
2024/02/24 09:14:57;;;;;;;7.70;3.25;;;9.50;95.30;;;;;;5102802;28;20032;-74
2024/02/24 09:17:23;;;;;;;7.05;2.47;;;9.50;95.30;;;;;;5091826;28;20433;-75
2024/02/24 09:19:49;;;;;;;4.07;2.40;;;9.50;95.40;;;;;;5092138;28;20499;-76
2024/02/24 09:22:14;;;;;;;2.05;1.30;;;9.50;95.50;;;;;;5097078;28;20467;-76
2024/02/24 09:24:40;;;;;;;5.40;3.05;;;9.60;95.50;;;;;;5096637;28;20051;-76
2024/02/24 09:27:05;;;;;;;4.68;2.88;;;9.60;95.50;;;;;;5102107;28;20035;-75
2024/02/24 09:29:31;;;;;;;5.13;2.88;;;9.60;95.60;;;;;;5102813;28;20040;-75
2024/02/24 09:31:57;;;;;;;1.88;1.25;;;9.50;95.60;;;;;;5115670;27;20034;-75
2024/02/24 09:34:22;;;;;;;4.50;2.70;;;9.50;95.70;;;;;;5113054;27;20063;-75
2024/02/24 09:36:54;;;;;;;3.90;1.85;;;9.50;95.80;;;;;;5109320;28;20142;-76
2024/02/24 09:39:19;;;;;;;9.25;2.63;;;9.50;95.80;;;;;;5105481;28;20032;-75
2024/02/24 09:41:45;;;;;;;2.70;1.70;;;9.60;95.90;;;;;;5095571;28;20035;-76
2024/02/24 09:44:14;;;;;;;6.43;3.28;;;9.60;95.90;;;;;;5097468;28;20047;-76
2024/02/24 09:46:42;;;;;;;6.20;3.70;;;9.60;95.90;;;;;;5092697;28;20026;-76
2024/02/24 09:49:11;;;;;;;9.13;2.38;;;9.70;96.00;;;;;;5089258;27;20035;-76
2024/02/24 09:51:40;;;;;;;4.13;2.75;;;9.70;96.00;;;;;;5094417;28;20529;-76
2024/02/24 09:54:05;;;;;;;5.30;2.80;;;9.70;95.90;;;;;;5093719;28;20059;-75
2024/02/24 09:56:33;;;;;;;2.42;0.80;;;9.70;95.90;;;;;;5095599;28;20495;-78
2024/02/24 09:58:58;;;;;;;2.63;1.52;;;9.70;96.00;;;;;;5096558;28;20070;-78
2024/02/24 10:01:24;;;;;;;3.65;1.98;;;9.70;96.10;;;;;;5101666;28;20063;-73
2024/02/24 10:03:50;;;;;;;1.70;1.40;;;9.60;96.20;;;;;;5092188;28;20044;-79
2024/02/24 10:06:19;;;;;;;2.25;1.67;;;9.60;96.30;;;;;;5097701;28;20399;-78
2024/02/24 10:08:45;;;;;;;5.85;3.03;;;9.60;96.50;;;;;;5101174;28;20039;-76
2024/02/24 10:11:13;;;;;;;1.48;1.30;;;9.60;96.60;;;;;;5099207;28;20024;-78
2024/02/24 10:13:39;;;;;;;2.50;1.88;;;9.60;96.60;;;;;;5091296;28;20093;-75
2024/02/24 10:16:09;;;;;;;4.55;2.85;;;9.60;96.70;;;;;;5087690;28;20024;-78
2024/02/24 10:18:39;;;;;;;3.08;2.42;;;9.70;96.70;;;;;;5096537;28;20032;-77
2024/02/24 10:21:05;;;;;;;4.35;2.65;;;9.70;96.70;;;;;;5093571;28;20028;-74
2024/02/24 10:23:32;;;;;;;5.30;2.90;;;9.70;96.80;;;;;;5095123;28;20486;-76
2024/02/24 10:25:58;;;;;;;4.63;3.20;;;9.70;96.80;;;;;;5094816;27;20077;-73
2024/02/24 10:28:26;;;;;;;1.92;1.75;;;9.60;96.90;;;;;;5096647;28;20036;-73
2024/02/24 10:30:52;;;;;;;7.55;2.05;;;9.70;97.00;;;;;;5093033;28;20024;-72
2024/02/24 10:33:18;;;;;;;8.30;4.25;;;9.70;97.20;;;;;;5101006;28;20028;-72
2024/02/24 10:35:46;;;;;;;5.40;3.47;;;9.60;97.20;;;;;;5095083;28;20115;-72
2024/02/24 10:38:13;;;;;;;6.15;3.05;;;9.60;97.50;;;;;;5097260;28;20412;-74
2024/02/24 10:40:42;;;;;;;3.70;1.25;;;9.50;97.60;;;;;;5097190;28;20039;-74
2024/02/24 10:43:08;;;;;;;4.93;3.13;;;9.50;97.60;;;;;;5096409;28;20096;-74
2024/02/24 10:45:34;;;;;;;7.03;3.80;;;9.60;97.70;;;;;;5097431;27;20630;-74
2024/02/24 10:48:00;;;;;;;8.77;3.95;;;9.60;97.70;;;;;;5095401;28;20114;-74
2024/02/24 10:50:25;;;;;;;8.63;4.40;;;9.60;97.70;;;;;;5092451;28;20016;-74
2024/02/24 10:52:53;;;;;;;7.00;4.20;;;9.50;97.90;;;;;;5090616;28;20085;-73
2024/02/24 10:55:22;;;;;;;5.97;3.03;;;9.50;98.10;;;;;;5105019;28;20023;-74
2024/02/24 10:57:51;;;;;;;7.88;5.00;;;9.50;98.20;;;;;;5096735;28;20105;-73
2024/02/24 11:00:23;;;;;;;5.85;3.28;;;9.50;98.30;;;;;;5100176;28;20034;-74
2024/02/24 11:02:50;;;;;;;8.48;4.07;;;9.40;98.30;;;;;;5097062;28;20483;-74
2024/02/24 11:05:16;;;;;;;7.20;3.85;;;9.50;98.50;;;;;;5104988;28;20078;-74
2024/02/24 11:07:41;;;;;;;3.88;2.50;;;9.50;98.50;;;;;;5094976;28;20040;-74
2024/02/24 11:10:18;;;;;;;4.95;2.42;;;9.60;98.50;;;;;;5101480;28;20032;-74
2024/02/24 11:12:44;;;;;;;5.70;1.65;;;9.60;98.60;;;;;;5087942;28;20044;-74
2024/02/24 11:15:23;;;;;;;3.33;2.33;;;9.60;98.50;;;;;;5094655;28;20145;-74
2024/02/24 11:17:55;;;;;;;3.78;2.58;;;9.60;98.60;;;;;;5091386;28;20039;-74
2024/02/24 11:20:39;;;;;;;7.28;4.20;;;9.70;98.60;;;;;;5103856;28;20039;-74
2024/02/24 11:23:24;;;;;;;7.30;3.63;;;9.70;98.60;;;;;;5099200;28;20032;-76
2024/02/24 11:26:16;;;;;;;6.43;3.47;;;9.80;98.60;;;;;;5088246;28;20114;-77
2024/02/24 11:28:46;;;;;;;2.13;1.85;;;9.80;98.60;;;;;;5090546;28;20036;-77
2024/02/24 11:31:36;;;;;;;4.43;3.20;;;9.90;98.70;;;;;;5098884;28;20474;-76
2024/02/24 11:34:07;;;;;;;2.17;1.70;;;9.90;98.60;;;;;;5095473;28;20535;-77
2024/02/24 11:36:39;;;;;;;4.47;2.53;;;9.90;98.60;;;;;;5100814;28;20036;-77
2024/02/24 11:39:11;;;;;;;4.50;3.10;;;9.90;98.60;;;;;;5096058;28;20025;-77
2024/02/24 11:41:37;;;;;;;13.73;7.55;;;9.90;98.50;;;;;;5096009;28;20035;-76
2024/02/24 11:44:03;;;;;;;3.85;2.85;;;9.90;98.60;;;;;;5099735;28;20043;-76
2024/02/24 11:46:29;;;;;;;4.78;3.45;;;9.90;98.60;;;;;;5103589;28;20118;-76
2024/02/24 11:48:55;;;;;;;16.15;5.72;;;9.90;98.70;;;;;;5089934;28;20120;-75
2024/02/24 11:51:24;;;;;;;12.82;5.53;;;10.00;98.60;;;;;;5094828;28;20040;-75
2024/02/24 11:53:51;;;;;;;4.05;2.63;;;9.90;98.60;;;;;;5096008;28;20039;-76
2024/02/24 11:56:17;;;;;;;3.88;2.72;;;9.90;98.50;;;;;;5089928;28;20020;-77
2024/02/24 11:58:43;;;;;;;4.55;2.88;;;10.00;98.50;;;;;;5091183;28;20423;-76
2024/02/24 12:01:12;;;;;;;6.45;2.95;;;10.00;98.60;;;;;;5102946;28;20032;-78
2024/02/24 12:03:38;;;;;;;2.75;2.33;;;10.00;98.70;;;;;;5096766;28;20100;-77
2024/02/24 12:06:07;;;;;;;2.50;1.90;;;10.00;98.70;;;;;;5088291;28;20024;-77
2024/02/24 12:08:34;;;;;;;3.80;2.72;;;10.00;98.70;;;;;;5106205;28;20123;-80
2024/02/24 12:11:00;;;;;;;5.80;2.10;;;10.20;98.70;;;;;;5087998;28;20559;-77
2024/02/24 12:13:26;;;;;;;5.20;2.72;;;10.10;98.70;;;;;;5100693;28;20061;-79
2024/02/24 12:15:53;;;;;;;3.95;2.97;;;10.20;98.80;;;;;;5086529;28;20119;-87
2024/02/24 12:18:22;;;;;;;4.47;2.67;;;10.30;98.80;;;;;;5087001;28;20032;-74
2024/02/24 12:20:48;;;;;;;2.15;1.75;;;10.40;98.80;;;;;;5097445;28;20039;-74
2024/02/24 12:23:16;;;;;;;3.90;2.08;;;10.50;98.80;;;;;;5089715;28;20048;-74
2024/02/24 12:25:46;;;;;;;9.13;2.50;;;10.60;98.80;;;;;;5097338;28;20467;-75
2024/02/24 12:28:12;;;;;;;2.30;1.58;;;10.70;98.80;;;;;;5089624;28;20040;-74
2024/02/24 12:30:42;;;;;;;11.55;2.92;;;10.70;98.80;;;;;;5093455;28;20049;-73
2024/02/24 12:33:16;;;;;;;5.13;1.60;;;10.80;98.80;;;;;;5104128;28;20042;-74
2024/02/24 12:35:42;;;;;;;3.45;2.30;;;10.80;98.80;;;;;;5099289;28;20035;-74
2024/02/24 12:38:16;;;;;;;1.13;1.02;;;10.90;98.80;;;;;;5104996;28;20031;-73
2024/02/24 12:40:44;;;;;;;;;;;10.90;98.70;;;;;;5090366;28;20035;-74
2024/02/24 12:43:10;;;;;;;1.38;1.13;;;10.90;98.70;;;;;;5091154;28;19977;-76
2024/02/24 12:45:36;;;;;;;8.75;2.80;;;11.00;98.70;;;;;;5093552;28;20414;-73
2024/02/24 12:48:02;;;;;;;3.60;1.85;;;11.00;98.80;;;;;;5099910;28;20040;-74
2024/02/24 12:50:31;;;;;;;4.55;2.33;;;11.00;98.80;;;;;;5100916;28;20027;-74